Aeroporto :
LOGIN :

Iscrizione | Disclaimer

   EN    FR    IT 

 










Sommario :    VFR   VFR Marginale   IFR   IFR Intensivo   IFR Molto Intensivo
Visibilità : 
Base nubi : 
>= 8 km
>= 3000ft
5 / 8 km
1000 / 3000 ft
1500m / 5 km
500 / 1000 ft
800 / 1500m
200 / 500 ft
< 800m
< 200 ft
Simboli :   Temporali  Nebbia  Neve Forte  Precipitazioni Forti  Vento > 20 kt
SIGMETs :   Varie  Temporali  Ghiacco  Turbolenza  Onda orograficha  Ceneri Vulcaniche






- Altitudine del aeroporto : 443 ft
- Codice IATA : SQQ


EYSA - Siauliai

ULTIMO METAR :
  • 270150Z AUTO 19008KT 8000NDV -SHSN FEW006 BKN016 BKN031 00/M01 Q0990 R14L/19//95 R14R/19//95

METARs OBSOLETI :
  • 270120Z AUTO 20008KT 9999NDV -SHRA FEW017 BKN030 01/M01 Q0991 R14L/19//95 R14R/19//95
  • 270050Z AUTO 19006KT 9999NDV -SHRA FEW016 SCT019 BKN031 00/M01 Q0990 R14L/19//95 R14R/19//95
  • 270020Z AUTO 20007KT 9999NDV FEW012 BKN018 01/M01 Q0990 R14L/19//95 R14R/19//95
  • 262350Z AUTO 19007KT 9999NDV FEW018 00/M01 Q0990 R14L/19//95 R14R/19//95
  • 262320Z AUTO 19007KT 9999NDV FEW017 SCT022 BKN140 01/M01 Q0990 R14L/19//95 R14R/19//95

TAF TAF EYSA
Valido dal 27 a 00 ore il 27 a 09 ore UTC


262300Z 2700/2709 20008KT 9000 BKN015
TEMPO 2706/2709 3000 SHSNRA BKN005 BKN018CB



MetMap, La meteo Aeronautica in un colpo d'occhio ! - Copyright ORBIFLY Dicembre 2007 - Disclaimer

ORBIFLY MET'MAP TEAM :

Programmazione e sviluppo : Alexandra Zaïnal
Concezione : Baudouin d'Aumeries
Aiuto per la programmazione : Marc-Olivier Méhu
Supporto tecnico e logistico : Manuel Goepfert
Aiuto per la traduzione : Arnaldo La Scala

Contatto : metmap@orbifly.com




FONTI E CREDITI :

   NOAA